sensor_id;sensor_type;location;lat;lon;timestamp;pressure;altitude;pressure_sealevel;temperature;humidity
55484;BME280;41345;51.704;5.146;2022-07-04T00:00:40;-17745.69;;;-145.21;100.00
55484;BME280;41345;51.704;5.146;2022-07-04T00:05:41;-17745.69;;;-145.21;100.00
55484;BME280;41345;51.704;5.146;2022-07-04T00:10:42;-17745.69;;;-145.21;100.00
55484;BME280;41345;51.704;5.146;2022-07-04T00:15:42;-17745.69;;;-145.21;100.00
55484;BME280;41345;51.704;5.146;2022-07-04T00:20:43;-17745.69;;;-145.21;100.00
55484;BME280;41345;51.704;5.146;2022-07-04T00:25:43;-17745.69;;;-145.21;100.00
55484;BME280;41345;51.704;5.146;2022-07-04T00:30:44;-17745.69;;;-145.21;100.00
55484;BME280;41345;51.704;5.146;2022-07-04T00:35:44;-17745.69;;;-145.21;100.00
55484;BME280;41345;51.704;5.146;2022-07-04T00:40:45;-17745.69;;;-145.21;100.00
55484;BME280;41345;51.704;5.146;2022-07-04T00:45:45;-17745.69;;;-145.21;100.00
55484;BME280;41345;51.704;5.146;2022-07-04T00:50:46;-17745.69;;;-145.21;100.00
55484;BME280;41345;51.704;5.146;2022-07-04T00:55:47;-17745.69;;;-145.21;100.00
55484;BME280;41345;51.704;5.146;2022-07-04T01:00:49;-17745.69;;;-145.21;100.00
55484;BME280;41345;51.704;5.146;2022-07-04T01:05:49;-17745.69;;;-145.21;100.00
55484;BME280;41345;51.704;5.146;2022-07-04T01:10:51;-17745.69;;;-145.21;100.00
55484;BME280;41345;51.704;5.146;2022-07-04T01:15:52;-17745.69;;;-145.21;100.00
55484;BME280;41345;51.704;5.146;2022-07-04T01:20:53;-17745.69;;;-145.21;100.00
55484;BME280;41345;51.704;5.146;2022-07-04T01:25:55;-17745.69;;;-145.21;100.00
55484;BME280;41345;51.704;5.146;2022-07-04T01:30:56;-17745.69;;;-145.21;100.00
55484;BME280;41345;51.704;5.146;2022-07-04T01:35:57;-17745.69;;;-145.21;100.00
55484;BME280;41345;51.704;5.146;2022-07-04T01:40:58;-17745.69;;;-145.21;100.00
55484;BME280;41345;51.704;5.146;2022-07-04T01:45:59;-17745.69;;;-145.21;100.00
55484;BME280;41345;51.704;5.146;2022-07-04T01:50:59;-17745.69;;;-145.21;100.00
55484;BME280;41345;51.704;5.146;2022-07-04T01:56:00;-17745.69;;;-145.21;100.00
55484;BME280;41345;51.704;5.146;2022-07-04T02:01:00;-17745.69;;;-145.21;100.00
55484;BME280;41345;51.704;5.146;2022-07-04T02:06:20;-17745.69;;;-145.21;100.00
55484;BME280;41345;51.704;5.146;2022-07-04T02:11:20;-17745.69;;;-145.21;100.00
55484;BME280;41345;51.704;5.146;2022-07-04T02:16:21;-17745.69;;;-145.21;100.00
55484;BME280;41345;51.704;5.146;2022-07-04T02:21:21;-17745.69;;;-145.21;100.00
55484;BME280;41345;51.704;5.146;2022-07-04T02:26:22;-17745.69;;;-145.21;100.00
55484;BME280;41345;51.704;5.146;2022-07-04T02:31:23;-17745.69;;;-145.21;100.00
55484;BME280;41345;51.704;5.146;2022-07-04T02:36:23;-17745.69;;;-145.21;100.00
55484;BME280;41345;51.704;5.146;2022-07-04T02:41:24;-17745.69;;;-145.21;100.00
55484;BME280;41345;51.704;5.146;2022-07-04T02:46:25;-17745.69;;;-145.21;100.00
55484;BME280;41345;51.704;5.146;2022-07-04T02:51:25;-17745.69;;;-145.21;100.00
55484;BME280;41345;51.704;5.146;2022-07-04T02:56:26;-17745.69;;;-145.21;100.00
55484;BME280;41345;51.704;5.146;2022-07-04T03:01:26;-17745.69;;;-145.21;100.00
55484;BME280;41345;51.704;5.146;2022-07-04T03:06:27;-17745.69;;;-145.21;100.00
55484;BME280;41345;51.704;5.146;2022-07-04T03:11:27;-17745.69;;;-145.21;100.00
55484;BME280;41345;51.704;5.146;2022-07-04T03:16:28;-17745.69;;;-145.21;100.00
55484;BME280;41345;51.704;5.146;2022-07-04T03:21:28;-17745.69;;;-145.21;100.00
55484;BME280;41345;51.704;5.146;2022-07-04T03:26:31;-17745.69;;;-145.21;100.00
55484;BME280;41345;51.704;5.146;2022-07-04T03:31:31;-17745.69;;;-145.21;100.00
55484;BME280;41345;51.704;5.146;2022-07-04T03:36:32;-17745.69;;;-145.21;100.00
55484;BME280;41345;51.704;5.146;2022-07-04T03:41:32;-17745.69;;;-145.21;100.00
55484;BME280;41345;51.704;5.146;2022-07-04T03:46:33;-17745.69;;;-145.21;100.00
55484;BME280;41345;51.704;5.146;2022-07-04T03:51:33;-17745.69;;;-145.21;100.00
55484;BME280;41345;51.704;5.146;2022-07-04T03:56:34;-17745.69;;;-145.21;100.00
55484;BME280;41345;51.704;5.146;2022-07-04T04:01:34;-17745.69;;;-145.21;100.00
55484;BME280;41345;51.704;5.146;2022-07-04T04:06:35;-17745.69;;;-145.21;100.00
55484;BME280;41345;51.704;5.146;2022-07-04T04:11:35;-17745.69;;;-145.21;100.00
55484;BME280;41345;51.704;5.146;2022-07-04T04:16:36;-17745.69;;;-145.21;100.00
55484;BME280;41345;51.704;5.146;2022-07-04T04:21:36;-17745.69;;;-145.21;100.00
55484;BME280;41345;51.704;5.146;2022-07-04T04:26:37;-17745.69;;;-145.21;100.00
55484;BME280;41345;51.704;5.146;2022-07-04T04:31:37;-17745.69;;;-145.21;100.00
55484;BME280;41345;51.704;5.146;2022-07-04T04:36:38;-17745.69;;;-145.21;100.00
55484;BME280;41345;51.704;5.146;2022-07-04T04:41:38;-17745.69;;;-145.21;100.00
55484;BME280;41345;51.704;5.146;2022-07-04T04:46:39;-17745.69;;;-145.21;100.00
55484;BME280;41345;51.704;5.146;2022-07-04T04:51:39;-17745.69;;;-145.21;100.00
55484;BME280;41345;51.704;5.146;2022-07-04T04:56:40;-17745.69;;;-145.21;100.00
55484;BME280;41345;51.704;5.146;2022-07-04T05:01:41;-17745.69;;;-145.21;100.00
55484;BME280;41345;51.704;5.146;2022-07-04T05:06:41;-17745.69;;;-145.21;100.00
55484;BME280;41345;51.704;5.146;2022-07-04T05:11:41;-17745.69;;;-145.21;100.00
55484;BME280;41345;51.704;5.146;2022-07-04T05:16:42;-17745.69;;;-145.21;100.00
55484;BME280;41345;51.704;5.146;2022-07-04T05:21:43;-17745.69;;;-145.21;100.00
55484;BME280;41345;51.704;5.146;2022-07-04T05:26:43;-17745.69;;;-145.21;100.00
55484;BME280;41345;51.704;5.146;2022-07-04T05:31:44;-17745.69;;;-145.21;100.00
55484;BME280;41345;51.704;5.146;2022-07-04T05:36:44;-17745.69;;;-145.21;100.00
55484;BME280;41345;51.704;5.146;2022-07-04T05:41:45;-17745.69;;;-145.21;100.00
55484;BME280;41345;51.704;5.146;2022-07-04T05:46:45;-17745.69;;;-145.21;100.00
55484;BME280;41345;51.704;5.146;2022-07-04T05:51:46;-17745.69;;;-145.21;100.00
55484;BME280;41345;51.704;5.146;2022-07-04T05:56:46;-17745.69;;;-145.21;100.00
55484;BME280;41345;51.704;5.146;2022-07-04T06:01:47;-17745.69;;;-145.21;100.00
55484;BME280;41345;51.704;5.146;2022-07-04T06:06:47;-17745.69;;;-145.21;100.00
55484;BME280;41345;51.704;5.146;2022-07-04T06:11:48;-17745.69;;;-145.21;100.00
55484;BME280;41345;51.704;5.146;2022-07-04T06:16:48;-17745.69;;;-145.21;100.00
55484;BME280;41345;51.704;5.146;2022-07-04T06:21:49;-17745.69;;;-145.21;100.00
55484;BME280;41345;51.704;5.146;2022-07-04T06:26:49;-17745.69;;;-145.21;100.00
55484;BME280;41345;51.704;5.146;2022-07-04T06:31:50;-17745.69;;;-145.21;100.00
55484;BME280;41345;51.704;5.146;2022-07-04T06:36:50;-17745.69;;;-145.21;100.00
55484;BME280;41345;51.704;5.146;2022-07-04T06:41:51;-17745.69;;;-145.21;100.00
55484;BME280;41345;51.704;5.146;2022-07-04T06:46:51;-17745.69;;;-145.21;100.00
55484;BME280;41345;51.704;5.146;2022-07-04T06:51:52;-17745.69;;;-145.21;100.00
55484;BME280;41345;51.704;5.146;2022-07-04T06:56:52;-17745.69;;;-145.21;100.00
55484;BME280;41345;51.704;5.146;2022-07-04T07:01:52;-17745.69;;;-145.21;100.00
55484;BME280;41345;51.704;5.146;2022-07-04T07:06:53;-17745.69;;;-145.21;100.00
55484;BME280;41345;51.704;5.146;2022-07-04T07:11:53;-17745.69;;;-145.21;100.00
55484;BME280;41345;51.704;5.146;2022-07-04T07:16:54;-17745.69;;;-145.21;100.00
55484;BME280;41345;51.704;5.146;2022-07-04T07:21:54;-17745.69;;;-145.21;100.00
55484;BME280;41345;51.704;5.146;2022-07-04T07:26:55;-17745.69;;;-145.21;100.00
55484;BME280;41345;51.704;5.146;2022-07-04T07:31:55;-17745.69;;;-145.21;100.00
55484;BME280;41345;51.704;5.146;2022-07-04T07:36:56;-17745.69;;;-145.21;100.00
55484;BME280;41345;51.704;5.146;2022-07-04T07:41:57;-17745.69;;;-145.21;100.00
55484;BME280;41345;51.704;5.146;2022-07-04T07:46:57;-17745.69;;;-145.21;100.00
55484;BME280;41345;51.704;5.146;2022-07-04T07:51:58;-17745.69;;;-145.21;100.00
55484;BME280;41345;51.704;5.146;2022-07-04T07:56:58;-17745.69;;;-145.21;100.00
55484;BME280;41345;51.704;5.146;2022-07-04T08:01:58;-17745.69;;;-145.21;100.00
55484;BME280;41345;51.704;5.146;2022-07-04T08:07:00;-17745.69;;;-145.21;100.00
55484;BME280;41345;51.704;5.146;2022-07-04T08:12:02;-17745.69;;;-145.21;100.00
55484;BME280;41345;51.704;5.146;2022-07-04T08:17:03;-17745.69;;;-145.21;100.00
55484;BME280;41345;51.704;5.146;2022-07-04T08:22:06;-17745.69;;;-145.21;100.00
55484;BME280;41345;51.704;5.146;2022-07-04T08:27:06;-17745.69;;;-145.21;100.00
55484;BME280;41345;51.704;5.146;2022-07-04T08:32:07;-17745.69;;;-145.21;100.00
55484;BME280;41345;51.704;5.146;2022-07-04T08:37:08;-17745.69;;;-145.21;100.00
55484;BME280;41345;51.704;5.146;2022-07-04T08:42:19;-17745.69;;;-145.21;100.00
55484;BME280;41345;51.704;5.146;2022-07-04T08:47:21;-17745.69;;;-145.21;100.00
55484;BME280;41345;51.704;5.146;2022-07-04T08:57:36;-17745.69;;;-145.21;100.00
55484;BME280;41345;51.704;5.146;2022-07-04T09:02:58;-17745.69;;;-145.21;100.00
55484;BME280;41345;51.704;5.146;2022-07-04T09:08:02;-17745.69;;;-145.21;100.00
55484;BME280;41345;51.704;5.146;2022-07-04T09:13:05;-17745.69;;;-145.21;100.00
55484;BME280;41345;51.704;5.146;2022-07-04T09:18:06;-17745.69;;;-145.21;100.00
55484;BME280;41345;51.704;5.146;2022-07-04T09:23:17;-17745.69;;;-145.21;100.00
55484;BME280;41345;51.704;5.146;2022-07-04T09:28:27;-17745.69;;;-145.21;100.00
55484;BME280;41345;51.704;5.146;2022-07-04T09:33:48;-17745.69;;;-145.21;100.00
55484;BME280;41345;51.704;5.146;2022-07-04T09:44:12;-17745.69;;;-145.21;100.00
55484;BME280;41345;51.704;5.146;2022-07-04T09:49:13;-17745.69;;;-145.21;100.00
55484;BME280;41345;51.704;5.146;2022-07-04T09:54:27;-17745.69;;;-145.21;100.00
55484;BME280;41345;51.704;5.146;2022-07-04T09:59:32;-17745.69;;;-145.21;100.00
55484;BME280;41345;51.704;5.146;2022-07-04T10:04:46;-17745.69;;;-145.21;100.00
55484;BME280;41345;51.704;5.146;2022-07-04T10:09:47;-17745.69;;;-145.21;100.00
55484;BME280;41345;51.704;5.146;2022-07-04T10:14:48;-17745.69;;;-145.21;100.00
55484;BME280;41345;51.704;5.146;2022-07-04T10:19:49;-17745.69;;;-145.21;100.00
55484;BME280;41345;51.704;5.146;2022-07-04T10:24:53;-17745.69;;;-145.21;100.00
55484;BME280;41345;51.704;5.146;2022-07-04T10:29:54;-17745.69;;;-145.21;100.00
55484;BME280;41345;51.704;5.146;2022-07-04T10:34:54;-17745.69;;;-145.21;100.00
55484;BME280;41345;51.704;5.146;2022-07-04T10:39:55;-17745.69;;;-145.21;100.00
55484;BME280;41345;51.704;5.146;2022-07-04T10:45:00;-17745.69;;;-145.21;100.00
55484;BME280;41345;51.704;5.146;2022-07-04T10:50:00;-17745.69;;;-145.21;100.00
55484;BME280;41345;51.704;5.146;2022-07-04T10:55:10;-17745.69;;;-145.21;100.00
55484;BME280;41345;51.704;5.146;2022-07-04T11:00:11;-17745.69;;;-145.21;100.00
55484;BME280;41345;51.704;5.146;2022-07-04T11:05:13;-17745.69;;;-145.21;100.00
55484;BME280;41345;51.704;5.146;2022-07-04T11:20:36;-17745.69;;;-145.21;100.00
55484;BME280;41345;51.704;5.146;2022-07-04T11:25:44;-17745.69;;;-145.21;100.00
55484;BME280;41345;51.704;5.146;2022-07-04T11:30:56;-17745.69;;;-145.21;100.00
55484;BME280;41345;51.704;5.146;2022-07-04T11:36:11;-17745.69;;;-145.21;100.00
55484;BME280;41345;51.704;5.146;2022-07-04T11:41:24;-17745.69;;;-145.21;100.00
55484;BME280;41345;51.704;5.146;2022-07-04T11:46:49;-14460.22;;;-145.21;100.00
55484;BME280;41345;51.704;5.146;2022-07-04T11:51:55;-8283.25;;;-145.21;100.00
55484;BME280;41345;51.704;5.146;2022-07-04T11:57:27;10822.16;;;-145.21;100.00
55484;BME280;41345;51.704;5.146;2022-07-04T12:02:32;28346.91;;;-145.21;100.00
55484;BME280;41345;51.704;5.146;2022-07-04T12:07:37;30345.81;;;-145.21;100.00
55484;BME280;41345;51.704;5.146;2022-07-04T12:17:54;47248.22;;;-145.21;100.00
55484;BME280;41345;51.704;5.146;2022-07-04T12:23:04;47280.31;;;-145.21;100.00
55484;BME280;41345;51.704;5.146;2022-07-04T12:33:06;47332.50;;;-145.21;100.00
55484;BME280;41345;51.704;5.146;2022-07-04T12:38:15;47304.41;;;-145.21;100.00
55484;BME280;41345;51.704;5.146;2022-07-04T12:43:16;47308.41;;;-145.21;100.00
55484;BME280;41345;51.704;5.146;2022-07-04T12:48:23;47304.41;;;-145.21;100.00
55484;BME280;41345;51.704;5.146;2022-07-04T12:53:24;47266.28;;;-145.21;100.00
55484;BME280;41345;51.704;5.146;2022-07-04T12:58:24;47268.28;;;-145.21;100.00
55484;BME280;41345;51.704;5.146;2022-07-04T13:03:25;47200.09;;;-145.21;100.00
55484;BME280;41345;51.704;5.146;2022-07-04T13:08:25;47107.81;;;-145.21;100.00
55484;BME280;41345;51.704;5.146;2022-07-04T13:13:26;47091.78;;;-145.21;100.00
55484;BME280;41345;51.704;5.146;2022-07-04T13:18:26;47202.09;;;-145.21;100.00
55484;BME280;41345;51.704;5.146;2022-07-04T13:23:27;46991.47;;;-145.21;100.00
55484;BME280;41345;51.704;5.146;2022-07-04T13:28:27;45507.41;;;-145.21;100.00
55484;BME280;41345;51.704;5.146;2022-07-04T13:33:28;46133.03;;;-145.21;100.00
55484;BME280;41345;51.704;5.146;2022-07-04T13:38:29;45513.41;;;-145.21;100.00
55484;BME280;41345;51.704;5.146;2022-07-04T13:43:29;43655.09;;;-145.21;100.00
55484;BME280;41345;51.704;5.146;2022-07-04T13:48:30;45521.44;;;-145.21;100.00
55484;BME280;41345;51.704;5.146;2022-07-04T13:53:31;44088.03;;;-145.21;100.00
55484;BME280;41345;51.704;5.146;2022-07-04T13:58:33;45136.47;;;-145.21;100.00
55484;BME280;41345;51.704;5.146;2022-07-04T14:03:34;43250.28;;;-145.21;100.00
55484;BME280;41345;51.704;5.146;2022-07-04T14:08:34;40744.09;;;-145.21;100.00
55484;BME280;41345;51.704;5.146;2022-07-04T14:13:35;42096.16;;;-145.21;100.00
55484;BME280;41345;51.704;5.146;2022-07-04T14:18:36;41344.94;;;-145.21;100.00
55484;BME280;41345;51.704;5.146;2022-07-04T14:23:36;42657.13;;;-145.21;100.00
55484;BME280;41345;51.704;5.146;2022-07-04T14:28:40;39406.50;;;-145.21;100.00
55484;BME280;41345;51.704;5.146;2022-07-04T14:33:40;39158.25;;;-145.21;100.00
55484;BME280;41345;51.704;5.146;2022-07-04T14:38:41;36030.53;;;-145.21;100.00
55484;BME280;41345;51.704;5.146;2022-07-04T14:43:43;34010.75;;;-145.21;100.00
55484;BME280;41345;51.704;5.146;2022-07-04T14:48:43;31092.91;;;-145.21;100.00
55484;BME280;41345;51.704;5.146;2022-07-04T14:53:44;36192.56;;;-145.21;100.00
55484;BME280;41345;51.704;5.146;2022-07-04T14:58:44;25483.16;;;-145.21;100.00
55484;BME280;41345;51.704;5.146;2022-07-04T15:03:45;27476.59;;;-145.21;100.00
55484;BME280;41345;51.704;5.146;2022-07-04T15:08:45;28518.59;;;-145.21;100.00
55484;BME280;41345;51.704;5.146;2022-07-04T15:13:46;23165.72;;;-145.21;100.00
55484;BME280;41345;51.704;5.146;2022-07-04T15:18:46;27025.53;;;-145.21;100.00
55484;BME280;41345;51.704;5.146;2022-07-04T15:23:47;27630.28;;;-145.21;100.00
55484;BME280;41345;51.704;5.146;2022-07-04T15:29:06;26935.72;;;-145.21;100.00
55484;BME280;41345;51.704;5.146;2022-07-04T15:34:07;13402.69;;;-145.21;100.00
55484;BME280;41345;51.704;5.146;2022-07-04T15:39:12;15537.19;;;-145.21;100.00
55484;BME280;41345;51.704;5.146;2022-07-04T15:44:13;27288.97;;;-145.21;100.00
55484;BME280;41345;51.704;5.146;2022-07-04T15:49:13;8076.53;;;-145.21;100.00
55484;BME280;41345;51.704;5.146;2022-07-04T15:54:14;19809.72;;;-145.21;100.00
55484;BME280;41345;51.704;5.146;2022-07-04T15:59:14;17334.44;;;-145.21;100.00
55484;BME280;41345;51.704;5.146;2022-07-04T16:04:16;17662.91;;;-145.21;100.00
55484;BME280;41345;51.704;5.146;2022-07-04T16:09:16;10245.84;;;-145.21;100.00
55484;BME280;41345;51.704;5.146;2022-07-04T16:14:17;13066.59;;;-145.21;100.00
55484;BME280;41345;51.704;5.146;2022-07-04T16:19:18;10979.16;;;-145.21;100.00
55484;BME280;41345;51.704;5.146;2022-07-04T16:24:19;16820.84;;;-145.21;100.00
55484;BME280;41345;51.704;5.146;2022-07-04T16:29:19;16836.78;;;-145.21;100.00
55484;BME280;41345;51.704;5.146;2022-07-04T16:34:20;13832.28;;;-145.21;100.00
55484;BME280;41345;51.704;5.146;2022-07-04T16:39:20;15145.22;;;-145.21;100.00
55484;BME280;41345;51.704;5.146;2022-07-04T16:44:23;13331.09;;;-145.21;100.00
55484;BME280;41345;51.704;5.146;2022-07-04T16:49:24;14043.13;;;-145.21;100.00
55484;BME280;41345;51.704;5.146;2022-07-04T16:54:25;24689.25;;;-145.21;100.00
55484;BME280;41345;51.704;5.146;2022-07-04T16:59:25;15730.22;;;-145.21;100.00
55484;BME280;41345;51.704;5.146;2022-07-04T17:04:26;17065.69;;;-145.21;100.00
55484;BME280;41345;51.704;5.146;2022-07-04T17:09:26;17991.44;;;-145.21;100.00
55484;BME280;41345;51.704;5.146;2022-07-04T17:14:27;22344.41;;;-145.21;100.00
55484;BME280;41345;51.704;5.146;2022-07-04T17:19:27;11998.91;;;-145.21;100.00
55484;BME280;41345;51.704;5.146;2022-07-04T17:24:28;13150.13;;;-145.21;100.00
55484;BME280;41345;51.704;5.146;2022-07-04T17:29:28;10347.19;;;-145.21;100.00
55484;BME280;41345;51.704;5.146;2022-07-04T17:34:29;16215.78;;;-145.21;100.00
55484;BME280;41345;51.704;5.146;2022-07-04T17:39:29;18670.47;;;-145.21;100.00
55484;BME280;41345;51.704;5.146;2022-07-04T17:44:30;13520.03;;;-145.21;100.00
55484;BME280;41345;51.704;5.146;2022-07-04T17:49:31;20602.63;;;-145.21;100.00
55484;BME280;41345;51.704;5.146;2022-07-04T17:54:32;25255.72;;;-145.21;100.00
55484;BME280;41345;51.704;5.146;2022-07-04T17:59:32;20931.41;;;-145.21;100.00
55484;BME280;41345;51.704;5.146;2022-07-04T18:04:33;21419.59;;;-145.21;100.00
55484;BME280;41345;51.704;5.146;2022-07-04T18:09:33;25902.09;;;-145.21;100.00
55484;BME280;41345;51.704;5.146;2022-07-04T18:14:34;28446.72;;;-145.21;100.00
55484;BME280;41345;51.704;5.146;2022-07-04T18:19:34;30345.81;;;-145.21;100.00
55484;BME280;41345;51.704;5.146;2022-07-04T18:24:34;33135.16;;;-145.21;100.00
55484;BME280;41345;51.704;5.146;2022-07-04T18:29:35;33427.00;;;-145.21;100.00
55484;BME280;41345;51.704;5.146;2022-07-04T18:34:36;30655.41;;;-145.21;100.00
55484;BME280;41345;51.704;5.146;2022-07-04T18:39:36;31878.09;;;-145.21;100.00
55484;BME280;41345;51.704;5.146;2022-07-04T18:44:37;30937.06;;;-145.21;100.00
55484;BME280;41345;51.704;5.146;2022-07-04T18:49:37;30953.06;;;-145.21;100.00
55484;BME280;41345;51.704;5.146;2022-07-04T18:54:39;30074.16;;;-145.21;100.00
55484;BME280;41345;51.704;5.146;2022-07-04T18:59:40;28293.00;;;-145.21;100.00
55484;BME280;41345;51.704;5.146;2022-07-04T19:04:42;26760.09;;;-145.21;100.00
55484;BME280;41345;51.704;5.146;2022-07-04T19:09:43;15475.50;;;-145.21;100.00
55484;BME280;41345;51.704;5.146;2022-07-04T19:14:44;21654.78;;;-145.21;100.00
55484;BME280;41345;51.704;5.146;2022-07-04T19:19:45;22236.75;;;-145.21;100.00
55484;BME280;41345;51.704;5.146;2022-07-04T19:24:45;23209.59;;;-145.21;100.00
55484;BME280;41345;51.704;5.146;2022-07-04T19:29:46;21052.94;;;-145.21;100.00
55484;BME280;41345;51.704;5.146;2022-07-04T19:34:47;15859.56;;;-145.21;100.00
55484;BME280;41345;51.704;5.146;2022-07-04T19:39:48;17764.47;;;-145.21;100.00
55484;BME280;41345;51.704;5.146;2022-07-04T19:44:51;19612.53;;;-145.21;100.00
55484;BME280;41345;51.704;5.146;2022-07-04T19:49:52;20122.47;;;-145.21;100.00
55484;BME280;41345;51.704;5.146;2022-07-04T19:55:07;21965.69;;;-145.21;100.00
55484;BME280;41345;51.704;5.146;2022-07-04T20:00:10;21840.13;;;-145.21;100.00
55484;BME280;41345;51.704;5.146;2022-07-04T20:05:11;21678.69;;;-145.21;100.00
55484;BME280;41345;51.704;5.146;2022-07-04T20:10:14;21094.78;;;-145.21;100.00
55484;BME280;41345;51.704;5.146;2022-07-04T20:15:15;19891.41;;;-145.21;100.00
55484;BME280;41345;51.704;5.146;2022-07-04T20:20:16;18339.88;;;-145.21;100.00
55484;BME280;41345;51.704;5.146;2022-07-04T20:25:17;17830.16;;;-145.21;100.00
55484;BME280;41345;51.704;5.146;2022-07-04T20:30:18;16070.50;;;-145.21;100.00
55484;BME280;41345;51.704;5.146;2022-07-04T20:35:19;13177.97;;;-145.21;100.00
55484;BME280;41345;51.704;5.146;2022-07-04T20:40:19;12760.38;;;-145.21;100.00
55484;BME280;41345;51.704;5.146;2022-07-04T20:45:20;12044.63;;;-145.21;100.00
55484;BME280;41345;51.704;5.146;2022-07-04T20:50:21;9971.66;;;-145.21;100.00
55484;BME280;41345;51.704;5.146;2022-07-04T20:55:22;8157.94;;;-145.21;100.00
55484;BME280;41345;51.704;5.146;2022-07-04T21:00:22;7069.75;;;-145.21;100.00
55484;BME280;41345;51.704;5.146;2022-07-04T21:05:23;5932.22;;;-145.21;100.00
55484;BME280;41345;51.704;5.146;2022-07-04T21:10:26;4582.72;;;-145.21;100.00
55484;BME280;41345;51.704;5.146;2022-07-04T21:15:26;4320.81;;;-145.21;100.00
55484;BME280;41345;51.704;5.146;2022-07-04T21:20:28;2355.09;;;-145.21;100.00
55484;BME280;41345;51.704;5.146;2022-07-04T21:25:29;560.84;;;-145.21;100.00
55484;BME280;41345;51.704;5.146;2022-07-04T21:30:30;-2785.56;;;-145.21;100.00
55484;BME280;41345;51.704;5.146;2022-07-04T21:35:31;-6305.13;;;-145.21;100.00
55484;BME280;41345;51.704;5.146;2022-07-04T21:40:31;-4915.91;;;-145.21;100.00
55484;BME280;41345;51.704;5.146;2022-07-04T21:45:32;-7820.44;;;-145.21;100.00
55484;BME280;41345;51.704;5.146;2022-07-04T21:50:33;-9669.28;;;-145.21;100.00
55484;BME280;41345;51.704;5.146;2022-07-04T21:55:33;-12437.88;;;-145.21;100.00
55484;BME280;41345;51.704;5.146;2022-07-04T22:00:34;-12437.88;;;-145.21;100.00
55484;BME280;41345;51.704;5.146;2022-07-04T22:05:35;-13701.97;;;-145.21;100.00
55484;BME280;41345;51.704;5.146;2022-07-04T22:10:36;-14965.63;;;-145.21;100.00
55484;BME280;41345;51.704;5.146;2022-07-04T22:15:36;-16734.06;;;-145.21;100.00
55484;BME280;41345;51.704;5.146;2022-07-04T22:20:37;-17239.16;;;-145.21;100.00
55484;BME280;41345;51.704;5.146;2022-07-04T22:25:37;-17491.69;;;-145.21;100.00
55484;BME280;41345;51.704;5.146;2022-07-04T22:30:38;-17491.69;;;-145.21;100.00
55484;BME280;41345;51.704;5.146;2022-07-04T22:35:38;-17745.69;;;-145.21;100.00
55484;BME280;41345;51.704;5.146;2022-07-04T22:40:39;-17745.69;;;-145.21;100.00
55484;BME280;41345;51.704;5.146;2022-07-04T22:45:40;-17745.69;;;-145.21;100.00
55484;BME280;41345;51.704;5.146;2022-07-04T22:50:41;-17745.69;;;-145.21;100.00
55484;BME280;41345;51.704;5.146;2022-07-04T22:56:00;-17745.69;;;-145.21;100.00
55484;BME280;41345;51.704;5.146;2022-07-04T23:01:01;-17745.69;;;-145.21;100.00
55484;BME280;41345;51.704;5.146;2022-07-04T23:06:02;-17745.69;;;-145.21;100.00
55484;BME280;41345;51.704;5.146;2022-07-04T23:11:02;-17745.69;;;-145.21;100.00
55484;BME280;41345;51.704;5.146;2022-07-04T23:16:03;-17745.69;;;-145.21;100.00
55484;BME280;41345;51.704;5.146;2022-07-04T23:21:04;-17745.69;;;-145.21;100.00
55484;BME280;41345;51.704;5.146;2022-07-04T23:26:05;-17745.69;;;-145.21;100.00
55484;BME280;41345;51.704;5.146;2022-07-04T23:31:06;-17745.69;;;-145.21;100.00
55484;BME280;41345;51.704;5.146;2022-07-04T23:36:06;-17745.69;;;-145.21;100.00
55484;BME280;41345;51.704;5.146;2022-07-04T23:41:07;-17745.69;;;-145.21;100.00
55484;BME280;41345;51.704;5.146;2022-07-04T23:46:08;-17745.69;;;-145.21;100.00
55484;BME280;41345;51.704;5.146;2022-07-04T23:51:09;-17745.69;;;-145.21;100.00
55484;BME280;41345;51.704;5.146;2022-07-04T23:56:10;-17745.69;;;-145.21;100.00
